Time;durP1;ratioP1;P1;durP2;ratioP2;P2;SDS_P1;SDS_P2;PMS_P1;PMS_P2;Temp;Humidity;BMP_temperature;BMP_pressure;BME280_temperature;BME280_humidity;BME280_pressure;Samples;Min_cycle;Max_cycle;Signal;HPM_P1;HPM_P2
2023/02/11 00:01:38;;;;;;;44.30;18.83;;;;;;;-0.48;59.14;101810.16;5198951;27;20400;-87
2023/02/11 00:04:04;;;;;;;44.28;18.65;;;;;;;-0.42;59.15;101802.78;5234516;27;20894;-87
2023/02/11 00:06:31;;;;;;;47.83;20.15;;;;;;;-0.45;59.15;101813.78;5199081;27;20064;-86
2023/02/11 00:08:56;;;;;;;48.28;19.90;;;;;;;-0.51;59.14;101810.91;5199191;27;20089;-87
2023/02/11 00:11:24;;;;;;;47.47;19.87;;;;;;;-0.55;59.14;101805.59;5198898;27;20120;-87
2023/02/11 00:13:49;;;;;;;46.92;19.83;;;;;;;-0.59;59.13;101802.03;5217064;27;20054;-87
2023/02/11 00:16:16;;;;;;;45.10;20.83;;;;;;;-0.68;59.13;101804.16;5199383;27;20154;-87
2023/02/11 00:18:42;;;;;;;44.95;20.17;;;;;;;-0.71;59.13;101797.22;5199549;27;20070;-86
2023/02/11 00:21:18;;;;;;;51.75;20.65;;;;;;;-0.69;59.13;101795.63;5216647;27;20473;-87
2023/02/11 00:23:44;;;;;;;48.45;19.35;;;;;;;-0.63;59.14;101797.56;5198608;27;20438;-87
2023/02/11 00:26:21;;;;;;;48.95;19.55;;;;;;;-0.77;59.13;101796.91;5199307;27;20054;-87
2023/02/11 00:28:47;;;;;;;42.92;18.48;;;;;;;-0.76;59.13;101787.56;5217487;27;20066;-87
2023/02/11 00:31:13;;;;;;;50.40;19.00;;;;;;;-0.66;59.13;101782.09;5199101;27;20061;-87
2023/02/11 00:33:39;;;;;;;41.35;18.27;;;;;;;-0.90;59.12;101789.50;5198671;27;20054;-87
2023/02/11 00:36:09;;;;;;;42.85;18.00;;;;;;;-0.80;59.12;101783.13;5199291;27;20430;-87
2023/02/11 00:38:34;;;;;;;40.47;18.15;;;;;;;-0.91;59.12;101794.53;5217035;27;20066;-87
2023/02/11 00:41:00;;;;;;;46.85;18.40;;;;;;;-0.87;59.12;101788.78;5199164;27;20080;-86
2023/02/11 00:43:25;;;;;;;43.83;19.30;;;;;;;-0.97;59.11;101795.09;5199320;27;20109;-87
2023/02/11 00:45:50;;;;;;;45.58;18.40;;;;;;;-1.10;59.10;101793.66;5198920;27;20049;-87
2023/02/11 00:48:16;;;;;;;43.40;18.92;;;;;;;-1.04;59.11;101783.72;5198695;27;20243;-85
2023/02/11 00:50:41;;;;;;;51.08;19.15;;;;;;;-0.95;59.11;101783.28;5199016;27;20062;-87
2023/02/11 00:53:07;;;;;;;42.80;18.17;;;;;;;-1.10;59.11;101783.44;5198508;27;20054;-86
2023/02/11 00:55:32;;;;;;;45.72;18.50;;;;;;;-0.89;59.12;101778.47;5198808;27;20060;-85
2023/02/11 00:57:58;;;;;;;44.20;19.12;;;;;;;-1.07;59.12;101790.38;5198972;27;20084;-86
2023/02/11 01:00:25;;;;;;;39.58;17.37;;;;;;;-1.07;59.11;101780.16;5199196;27;20066;-85
2023/02/11 01:02:51;;;;;;;47.88;19.35;;;;;;;-0.97;59.11;101772.09;5199302;27;20072;-86
2023/02/11 01:05:16;;;;;;;45.58;20.05;;;;;;;-1.16;59.11;101775.50;5199433;27;20706;-86
2023/02/11 01:07:42;;;;;;;49.83;19.73;;;;;;;-1.10;59.10;101763.00;5198779;27;20130;-85
2023/02/11 01:10:07;;;;;;;46.65;19.65;;;;;;;-1.18;59.10;101766.88;5198594;27;20089;-85
2023/02/11 01:12:33;;;;;;;47.08;19.37;;;;;;;-1.15;59.11;101755.94;5198829;27;20097;-86
2023/02/11 01:14:58;;;;;;;47.42;18.87;;;;;;;-1.16;59.11;101749.94;5198829;27;20113;-86
2023/02/11 01:17:24;;;;;;;46.90;18.20;;;;;;;-1.01;59.12;101749.78;5216252;27;20066;-86
2023/02/11 01:19:49;;;;;;;45.50;19.12;;;;;;;-1.16;59.11;101742.28;5198183;27;20423;-86
2023/02/11 01:22:15;;;;;;;43.13;18.08;;;;;;;-1.17;59.10;101739.66;5216484;27;20074;-85
2023/02/11 01:24:40;;;;;;;43.00;18.00;;;;;;;-0.87;59.12;101729.97;5199185;27;20059;-85
2023/02/11 01:27:06;;;;;;;40.25;17.90;;;;;;;-1.09;59.10;101736.66;5198854;27;20085;-85
2023/02/11 01:29:31;;;;;;;43.03;17.50;;;;;;;-1.17;59.10;101739.66;5199058;27;20108;-86
2023/02/11 01:31:57;;;;;;;44.15;17.33;;;;;;;-1.37;59.10;101741.25;5198806;27;20444;-86
2023/02/11 01:34:22;;;;;;;48.63;19.00;;;;;;;-1.37;59.09;101729.34;5198799;27;20078;-85
2023/02/11 01:36:47;;;;;;;44.97;17.55;;;;;;;-1.15;59.11;101731.25;5198250;27;20066;-84
2023/02/11 01:39:13;;;;;;;45.83;18.27;;;;;;;-1.52;59.08;101727.75;5197392;27;20210;-86
2023/02/11 01:41:38;;;;;;;43.42;17.90;;;;;;;-1.60;59.07;101724.81;5198866;27;20084;-86
2023/02/11 01:44:29;;;;;;;43.65;17.37;;;;;;;-1.60;59.08;101728.25;5198685;27;20101;-86
2023/02/11 01:46:54;;;;;;;46.33;17.12;;;;;;;-1.50;59.08;101726.13;5235317;27;20062;-86
2023/02/11 01:49:46;;;;;;;40.10;17.65;;;;;;;-1.52;59.09;101726.06;5199903;27;20120;-85
2023/02/11 01:52:18;;;;;;;41.50;17.40;;;;;;;-1.56;59.08;101727.59;5231546;27;20055;-86
2023/02/11 01:57:42;;;;;;;46.37;16.35;;;;;;;-1.56;59.08;101725.03;5220455;27;20076;-85
2023/02/11 02:00:21;;;;;;;43.65;17.50;;;;;;;-1.57;59.08;101725.84;5217557;27;20178;-87
2023/02/11 02:02:54;;;;;;;46.25;18.05;;;;;;;-1.57;59.08;101715.63;5217102;27;20066;-87
2023/02/11 02:05:34;;;;;;;41.42;17.12;;;;;;;-1.60;59.07;101724.81;5217134;27;20054;-87
2023/02/11 02:08:45;;;;;;;40.85;17.17;;;;;;;-1.51;59.08;101722.69;5217442;27;20097;-86
2023/02/11 02:11:10;;;;;;;43.38;17.17;;;;;;;-1.63;59.07;101724.69;5235511;27;20061;-87
2023/02/11 02:13:36;;;;;;;42.65;18.62;;;;;;;-1.42;59.09;101719.69;5200028;27;20396;-87
2023/02/11 02:16:03;;;;;;;53.97;19.33;;;;;;;-1.67;59.08;101721.06;5200330;27;20068;-87
2023/02/11 02:18:41;;;;;;;50.88;19.52;;;;;;;-1.70;59.07;101720.06;5200309;27;20085;-87
2023/02/11 02:21:31;;;;;;;44.30;19.10;;;;;;;-1.53;59.08;101719.19;5235375;27;20066;-88
2023/02/11 02:24:32;;;;;;;43.42;18.37;;;;;;;-1.49;59.08;101715.09;5217857;27;20161;-88
2023/02/11 02:27:09;;;;;;;43.72;17.73;;;;;;;-1.60;59.07;101714.63;5208413;27;20415;-88
2023/02/11 02:29:59;;;;;;;41.15;17.05;;;;;;;-1.49;59.08;101707.44;5235599;27;20066;-87
2023/02/11 02:32:29;;;;;;;48.00;17.87;;;;;;;-1.55;59.08;101713.16;5200437;27;20061;-87
2023/02/11 02:34:57;;;;;;;45.60;17.85;;;;;;;-1.57;59.08;101710.53;5217605;27;20095;-87
2023/02/11 02:37:41;;;;;;;42.15;17.65;;;;;;;-1.58;59.09;101713.00;5235320;27;20050;-87
2023/02/11 02:40:11;;;;;;;39.72;16.55;;;;;;;-1.65;59.08;101710.97;5235288;27;20101;-85
2023/02/11 02:42:37;;;;;;;43.95;17.37;;;;;;;-1.76;59.06;101707.87;5218194;27;20062;-86
2023/02/11 02:45:02;;;;;;;41.85;17.73;;;;;;;-1.69;59.07;101698.81;5217850;27;20120;-85
2023/02/11 02:47:28;;;;;;;38.95;17.58;;;;;;;-1.67;59.08;101698.09;5199980;27;20068;-86
2023/02/11 02:49:53;;;;;;;40.83;16.92;;;;;;;-1.58;59.08;101701.09;5200224;27;20109;-87
2023/02/11 02:52:49;;;;;;;34.78;16.10;;;;;;;-1.46;59.08;101697.38;5200351;27;20481;-87
2023/02/11 02:55:15;;;;;;;42.38;16.60;;;;;;;-1.62;59.07;101696.66;5220313;27;20026;-87
2023/02/11 02:58:05;;;;;;;46.15;15.68;;;;;;;-1.59;59.08;101703.59;5235793;27;20084;-87
2023/02/11 03:00:43;;;;;;;34.38;15.02;;;;;;;-1.72;59.07;101697.00;5218013;27;20066;-86
2023/02/11 03:03:24;;;;;;;42.72;17.00;;;;;;;-1.67;59.08;101694.66;5201471;27;20058;-87
2023/02/11 03:05:59;;;;;;;41.55;15.80;;;;;;;-1.68;59.07;101687.81;5235970;27;20068;-87
2023/02/11 03:08:26;;;;;;;41.50;16.10;;;;;;;-1.57;59.08;101686.66;5236018;27;20117;-88
2023/02/11 03:10:52;;;;;;;43.45;18.37;;;;;;;-1.77;59.07;101687.37;5217902;27;20062;-87
2023/02/11 03:13:19;;;;;;;44.75;17.30;;;;;;;-1.66;59.08;101688.75;5200516;27;20112;-87
2023/02/11 03:15:47;;;;;;;41.20;14.50;;;;;;;-1.74;59.07;101684.97;5218026;27;20077;-87
2023/02/11 03:18:14;;;;;;;37.97;15.55;;;;;;;-1.89;59.06;101688.53;5218351;27;20463;-86
2023/02/11 03:20:41;;;;;;;38.38;16.20;;;;;;;-1.91;59.06;101682.47;5200005;27;20066;-87
2023/02/11 03:23:42;;;;;;;37.35;15.25;;;;;;;-2.04;59.05;101677.56;5217493;27;20065;-88
2023/02/11 03:26:16;;;;;;;38.28;15.77;;;;;;;-1.96;59.05;101672.84;5219221;27;20054;-87
2023/02/11 03:29:04;;;;;;;40.47;15.77;;;;;;;-2.13;59.04;101678.78;5218406;27;20469;-88
2023/02/11 03:32:07;;;;;;;39.17;15.70;;;;;;;-2.01;59.05;101676.84;5218325;27;20066;-87
2023/02/11 03:34:46;;;;;;;40.60;16.65;;;;;;;-1.97;59.05;101676.19;5223076;27;20062;-88
2023/02/11 03:37:14;;;;;;;34.97;15.00;;;;;;;-2.07;59.05;101679.97;5218553;27;20404;-88
2023/02/11 03:39:54;;;;;;;34.15;16.42;;;;;;;-2.21;59.04;101668.19;5218070;27;20073;-88
2023/02/11 03:42:19;;;;;;;37.95;16.45;;;;;;;-2.14;59.05;101672.78;5237540;27;20156;-88
2023/02/11 03:44:48;;;;;;;40.42;15.70;;;;;;;-2.02;59.06;101663.22;5200144;27;20069;-88
2023/02/11 03:47:14;;;;;;;39.75;15.40;;;;;;;-1.96;59.05;101660.06;5200403;27;20064;-88
2023/02/11 03:49:40;;;;;;;39.92;16.20;;;;;;;-1.89;59.07;101652.81;5200347;27;20062;-88
2023/02/11 03:52:06;;;;;;;42.55;16.90;;;;;;;-1.81;59.07;101645.50;5217880;27;20076;-88
2023/02/11 03:54:35;;;;;;;36.15;16.27;;;;;;;-2.00;59.06;101640.31;5217955;27;20481;-86
2023/02/11 03:57:02;;;;;;;38.67;16.25;;;;;;;-1.90;59.06;101634.84;5218067;27;20475;-86
2023/02/11 03:59:27;;;;;;;36.17;16.17;;;;;;;-1.87;59.07;101633.34;5237098;27;20069;-87
2023/02/11 04:01:53;;;;;;;39.35;16.60;;;;;;;-2.01;59.05;101631.78;5217705;27;20396;-86
2023/02/11 04:04:18;;;;;;;35.20;15.82;;;;;;;-1.73;59.08;101620.34;5217858;27;20080;-86
2023/02/11 04:06:44;;;;;;;45.78;17.02;;;;;;;-1.90;59.06;101617.84;5216949;27;20349;-86
2023/02/11 04:09:10;;;;;;;36.85;15.68;;;;;;;-1.95;59.06;101619.31;5217741;27;20359;-86
2023/02/11 04:11:36;;;;;;;42.72;17.08;;;;;;;-1.98;59.05;101610.66;5217892;27;20077;-88
2023/02/11 04:14:01;;;;;;;41.40;17.20;;;;;;;-1.86;59.06;101611.25;5217828;27;20066;-87
2023/02/11 04:16:28;;;;;;;41.55;15.73;;;;;;;-1.94;59.06;101607.44;5199676;27;20069;-87
2023/02/11 04:18:53;;;;;;;38.05;15.35;;;;;;;-1.94;59.06;101603.19;5200456;27;20059;-86
2023/02/11 04:21:18;;;;;;;39.13;16.00;;;;;;;-1.87;59.06;101601.84;5199248;27;20074;-86
2023/02/11 04:23:44;;;;;;;39.13;16.00;;;;;;;-1.91;59.06;101598.25;5235428;27;20082;-85
2023/02/11 04:26:09;;;;;;;43.83;17.65;;;;;;;-1.79;59.07;101595.41;5217600;27;20108;-86
2023/02/11 04:28:35;;;;;;;38.92;15.40;;;;;;;-1.82;59.06;101594.41;5235113;27;20346;-88
2023/02/11 04:31:01;;;;;;;40.03;16.27;;;;;;;-1.71;59.07;101588.09;5235596;27;20399;-88
2023/02/11 04:33:27;;;;;;;41.55;17.42;;;;;;;-1.69;59.07;101583.94;5235651;27;20086;-87
2023/02/11 04:35:53;;;;;;;37.90;16.15;;;;;;;-1.67;59.08;101580.66;5235383;27;20172;-87
2023/02/11 04:38:18;;;;;;;43.70;16.85;;;;;;;-1.64;59.07;101580.81;5200431;27;20082;-87
2023/02/11 04:40:44;;;;;;;38.47;16.62;;;;;;;-1.65;59.08;101588.41;5199900;27;20109;-87
2023/02/11 04:43:10;;;;;;;34.58;14.82;;;;;;;-1.51;59.09;101584.78;5237044;27;20066;-88
2023/02/11 04:45:36;;;;;;;34.28;15.25;;;;;;;-1.76;59.06;101590.44;5237104;27;20101;-88
2023/02/11 04:48:03;;;;;;;39.40;16.02;;;;;;;-1.36;59.10;101588.06;5235587;27;20446;-87
2023/02/11 04:50:29;;;;;;;41.15;15.85;;;;;;;-1.52;59.08;101584.72;5237080;27;20062;-87
2023/02/11 04:52:54;;;;;;;38.22;15.77;;;;;;;-1.61;59.08;101592.84;5217854;27;20066;-87
2023/02/11 04:55:20;;;;;;;32.63;14.35;;;;;;;-1.76;59.07;101590.44;5199927;27;20441;-86
2023/02/11 04:57:45;;;;;;;31.75;13.15;;;;;;;-1.86;59.06;101591.69;5199788;27;20141;-87
2023/02/11 05:00:14;;;;;;;35.25;14.05;;;;;;;-1.75;59.06;101586.22;5200029;27;20062;-87
2023/02/11 05:02:40;;;;;;;37.03;13.40;;;;;;;-1.86;59.06;101594.25;5236750;27;20137;-86
2023/02/11 05:05:06;;;;;;;28.38;13.18;;;;;;;-1.95;59.06;101588.69;5234700;27;20148;-86
2023/02/11 05:07:32;;;;;;;34.05;13.70;;;;;;;-1.88;59.06;101595.00;5217416;27;20068;-88
2023/02/11 05:09:58;;;;;;;36.17;14.85;;;;;;;-1.90;59.05;101602.53;5235407;27;20114;-88
2023/02/11 05:12:24;;;;;;;36.85;13.50;;;;;;;-1.75;59.07;101594.75;5235494;27;20164;-88
2023/02/11 05:14:50;;;;;;;31.17;13.98;;;;;;;-1.67;59.08;101592.53;5200168;27;20137;-89
2023/02/11 05:17:15;;;;;;;35.35;13.10;;;;;;;-1.69;59.07;101599.25;5236777;27;20104;-87
2023/02/11 05:19:41;;;;;;;37.90;14.05;;;;;;;-1.55;59.08;101590.56;5199335;27;20058;-87
2023/02/11 05:22:07;;;;;;;37.38;13.65;;;;;;;-1.70;59.07;101595.84;5216874;27;20097;-85
2023/02/11 05:24:32;;;;;;;36.83;13.13;;;;;;;-1.70;59.07;101589.84;5198968;27;20074;-86
2023/02/11 05:26:58;;;;;;;31.65;12.23;;;;;;;-1.60;59.08;101598.03;5235198;27;20080;-88
2023/02/11 05:29:23;;;;;;;37.97;13.57;;;;;;;-1.74;59.07;101588.84;5199789;27;20126;-87
2023/02/11 05:31:49;;;;;;;36.00;14.05;;;;;;;-1.65;59.08;101586.72;5199552;27;20499;-86
2023/02/11 05:34:15;;;;;;;32.72;12.55;;;;;;;-1.64;59.08;101591.03;5199761;27;20097;-87
2023/02/11 05:36:40;;;;;;;32.55;13.20;;;;;;;-1.60;59.07;101576.72;5235293;27;20050;-87
2023/02/11 05:39:05;;;;;;;29.23;13.05;;;;;;;-1.60;59.08;101574.19;5217495;27;20739;-87
2023/02/11 05:41:31;;;;;;;35.58;13.98;;;;;;;-1.74;59.07;101568.41;5217078;27;20432;-88
2023/02/11 05:43:57;;;;;;;33.35;13.27;;;;;;;-1.83;59.06;101574.78;5199678;27;20475;-87
2023/02/11 05:46:23;;;;;;;33.53;13.23;;;;;;;-1.73;59.08;101580.38;5217454;27;20064;-87
2023/02/11 05:48:48;;;;;;;34.05;13.80;;;;;;;-1.66;59.08;101571.31;5217168;27;20081;-86
2023/02/11 05:51:14;;;;;;;36.63;14.48;;;;;;;-1.71;59.08;101572.78;5217175;27;20463;-86
2023/02/11 05:53:39;;;;;;;32.45;13.23;;;;;;;-1.78;59.07;101571.63;5235130;27;20228;-86
2023/02/11 05:56:06;;;;;;;28.92;13.77;;;;;;;-1.73;59.08;101571.84;5234789;27;20104;-86
2023/02/11 05:58:32;;;;;;;31.30;13.27;;;;;;;-1.74;59.07;101570.97;5217206;27;20057;-87
2023/02/11 06:00:57;;;;;;;37.67;14.00;;;;;;;-2.00;59.05;101579.94;5216986;27;20080;-87
2023/02/11 06:03:23;;;;;;;36.45;14.15;;;;;;;-1.76;59.06;101575.13;5217499;27;20074;-87
2023/02/11 06:05:48;;;;;;;34.45;13.48;;;;;;;-1.78;59.07;101574.19;5199499;27;20104;-87
2023/02/11 06:08:14;;;;;;;35.85;14.52;;;;;;;-1.79;59.07;101585.19;5217287;27;20117;-87
2023/02/11 06:10:41;;;;;;;31.87;13.35;;;;;;;-1.66;59.08;101584.94;5217308;27;20135;-88
2023/02/11 06:13:07;;;;;;;36.75;14.05;;;;;;;-1.68;59.07;101584.00;5216842;27;20080;-87
2023/02/11 06:15:33;;;;;;;34.20;13.15;;;;;;;-1.59;59.08;101587.00;5217034;27;20054;-88
2023/02/11 06:17:59;;;;;;;34.08;13.57;;;;;;;-1.48;59.08;101595.16;5217053;27;20067;-88
2023/02/11 06:20:24;;;;;;;34.88;13.93;;;;;;;-1.43;59.09;101586.00;5234311;27;20062;-87
2023/02/11 06:22:50;;;;;;;30.23;14.32;;;;;;;-1.50;59.09;101583.13;5217222;27;20094;-87
2023/02/11 06:25:15;;;;;;;34.30;13.82;;;;;;;-1.35;59.09;101578.72;5217305;27;20144;-86
2023/02/11 06:27:41;;;;;;;32.35;13.75;;;;;;;-1.43;59.09;101578.34;5199527;27;20090;-88
2023/02/11 06:30:07;;;;;;;33.58;13.68;;;;;;;-1.46;59.08;101572.22;5217427;27;20149;-87
2023/02/11 06:32:33;;;;;;;30.67;13.20;;;;;;;-1.52;59.08;101579.63;5217945;27;20058;-87
2023/02/11 06:34:59;;;;;;;36.03;13.93;;;;;;;-1.52;59.08;101571.97;5235884;27;20097;-87
2023/02/11 06:37:25;;;;;;;33.30;13.00;;;;;;;-1.47;59.08;101575.59;5236249;27;20065;-87
2023/02/11 06:39:51;;;;;;;32.15;13.10;;;;;;;-1.50;59.08;101575.47;5235481;27;20422;-87
2023/02/11 06:42:16;;;;;;;28.55;12.48;;;;;;;-1.31;59.10;101571.25;5235890;27;20066;-87
2023/02/11 06:44:43;;;;;;;37.33;14.10;;;;;;;-1.40;59.09;101567.44;5235447;27;20065;-87
2023/02/11 06:47:09;;;;;;;27.87;12.63;;;;;;;-1.34;59.09;101570.25;5217927;27;20073;-87
2023/02/11 06:49:35;;;;;;;35.40;13.52;;;;;;;-1.18;59.10;101570.13;5217749;27;20348;-87
2023/02/11 06:52:00;;;;;;;32.25;13.85;;;;;;;-1.07;59.11;101565.47;5235059;27;20133;-87
2023/02/11 06:54:26;;;;;;;29.63;13.02;;;;;;;-0.98;59.11;101565.87;5217769;27;20169;-87
2023/02/11 06:56:52;;;;;;;31.80;13.13;;;;;;;-0.78;59.13;101559.94;5217606;27;20153;-86
2023/02/11 06:59:19;;;;;;;35.45;13.95;;;;;;;-0.62;59.13;101557.25;5217831;27;20149;-88
2023/02/11 07:01:44;;;;;;;31.58;12.82;;;;;;;-0.62;59.14;101556.38;5218489;27;20053;-88
2023/02/11 07:04:10;;;;;;;29.25;12.77;;;;;;;-0.52;59.14;101560.16;5199397;27;20058;-87
2023/02/11 07:06:36;;;;;;;33.53;13.35;;;;;;;-0.32;59.15;101555.06;5198973;27;20370;-86
2023/02/11 07:09:03;;;;;;;38.30;15.10;;;;;;;-0.22;59.15;101558.00;5200025;27;20081;-87
2023/02/11 07:11:29;;;;;;;38.75;14.65;;;;;;;-0.40;59.15;101551.31;5235680;27;20122;-87
2023/02/11 07:14:02;;;;;;;35.08;14.25;;;;;;;-0.37;59.15;101554.00;5218163;27;20050;-87
2023/02/11 07:16:27;;;;;;;37.15;14.98;;;;;;;-0.17;59.16;101551.38;5200840;27;20387;-87
2023/02/11 07:18:53;;;;;;;36.38;15.40;;;;;;;-0.01;59.17;101549.47;5199990;27;20078;-87
2023/02/11 07:21:20;;;;;;;37.58;14.90;;;;;;;-0.08;59.16;101547.50;5235235;27;20069;-87
2023/02/11 07:23:47;;;;;;;35.28;15.05;;;;;;;0.02;59.18;101547.88;5217831;27;20104;-86
2023/02/11 07:26:18;;;;;;;36.45;15.18;;;;;;;0.13;59.18;101547.47;5235108;27;20081;-85
2023/02/11 07:28:43;;;;;;;44.22;18.52;;;;;;;0.25;59.19;101547.97;5217371;27;20453;-87
2023/02/11 07:31:14;;;;;;;38.65;16.20;;;;;;;0.39;59.20;101548.47;5216966;27;20058;-86
2023/02/11 07:33:39;;;;;;;37.75;15.07;;;;;;;0.60;59.21;101538.16;5199561;27;20053;-86
2023/02/11 07:36:06;;;;;;;34.83;16.27;;;;;;;0.81;59.21;101535.50;5217205;27;20113;-86
2023/02/11 07:38:32;;;;;;;41.92;17.27;;;;;;;1.15;59.24;101537.53;5217666;27;20065;-86
2023/02/11 07:41:02;;;;;;;38.67;16.27;;;;;;;1.25;59.24;101541.31;5234910;27;20423;-87
2023/02/11 07:43:28;;;;;;;36.53;16.02;;;;;;;1.35;59.25;101536.53;5235096;27;20084;-87
2023/02/11 07:45:54;;;;;;;41.20;14.87;;;;;;;1.58;59.26;101531.31;5235218;27;20062;-86
2023/02/11 07:48:20;;;;;;;36.83;15.93;;;;;;;1.84;59.28;101523.62;5235258;27;20061;-86
2023/02/11 07:50:48;;;;;;;33.15;14.82;;;;;;;1.84;59.28;101518.47;5199456;27;20054;-87
2023/02/11 07:53:13;;;;;;;35.75;15.48;;;;;;;1.82;59.27;101506.41;5217777;27;20470;-85
2023/02/11 07:55:38;;;;;;;34.75;15.45;;;;;;;2.10;59.29;101516.72;5217230;27;20058;-87
2023/02/11 07:58:04;;;;;;;32.83;15.60;;;;;;;2.30;59.31;101512.19;5198821;27;20078;-86
2023/02/11 08:00:33;;;;;;;35.80;15.68;;;;;;;2.30;59.31;101507.03;5216216;27;20097;-85
2023/02/11 08:02:58;;;;;;;35.58;15.70;;;;;;;2.48;59.31;101501.56;5199802;27;20046;-86
2023/02/11 08:05:24;;;;;;;32.97;14.43;;;;;;;2.72;59.33;101499.69;5234817;27;20058;-87
2023/02/11 08:07:51;;;;;;;43.10;17.92;;;;;;;3.04;59.35;101502.25;5217053;27;20105;-85
2023/02/11 08:10:16;;;;;;;42.80;19.02;;;;;;;3.12;59.35;101498.22;5199322;27;20088;-87
2023/02/11 08:12:42;;;;;;;43.38;20.05;;;;;;;3.30;59.36;101500.34;5234751;27;20629;-87
2023/02/11 08:15:09;;;;;;;45.25;18.42;;;;;;;3.37;59.36;101498.00;5234418;27;20100;-86
2023/02/11 08:17:38;;;;;;;38.03;19.10;;;;;;;3.52;59.37;101491.47;5217150;27;20117;-86
2023/02/11 08:20:07;;;;;;;45.10;20.00;;;;;;;3.73;59.39;101492.00;5234491;27;20049;-86
2023/02/11 08:22:36;;;;;;;32.40;16.30;;;;;;;3.58;59.38;101494.22;5217242;27;20128;-86
2023/02/11 08:25:08;;;;;;;34.15;16.62;;;;;;;4.03;59.40;101502.16;5217089;27;20475;-87
2023/02/11 08:27:34;;;;;;;32.25;15.27;;;;;;;3.98;59.41;101494.28;5216903;27;20553;-87
2023/02/11 08:30:03;;;;;;;34.35;14.93;;;;;;;4.12;59.40;101489.47;5216996;27;20058;-86
2023/02/11 08:32:33;;;;;;;41.85;16.27;;;;;;;4.14;59.41;101481.75;5236374;27;20068;-86
2023/02/11 08:35:06;;;;;;;39.78;17.90;;;;;;;4.18;59.41;101487.00;5198538;27;20133;-86
2023/02/11 08:37:36;;;;;;;33.80;15.95;;;;;;;4.17;59.41;101468.94;5235948;27;20077;-85
2023/02/11 08:40:03;;;;;;;39.88;16.98;;;;;;;4.37;59.43;101479.69;5216162;27;20750;-87
2023/02/11 08:42:29;;;;;;;34.83;17.30;;;;;;;4.41;59.42;101486.62;5233955;27;20058;-86
2023/02/11 08:44:55;;;;;;;39.60;16.92;;;;;;;4.46;59.43;101488.47;5216443;27;20364;-86
2023/02/11 08:47:21;;;;;;;39.00;16.70;;;;;;;4.71;59.44;101489.81;5234237;27;20153;-87
2023/02/11 08:49:46;;;;;;;33.45;16.33;;;;;;;4.58;59.44;101487.84;5215553;27;20363;-85
2023/02/11 08:52:12;;;;;;;37.63;16.27;;;;;;;4.56;59.43;101484.37;5216943;27;20062;-87
2023/02/11 08:54:38;;;;;;;40.90;17.05;;;;;;;4.57;59.42;101488.69;5216299;27;20400;-87
2023/02/11 08:57:06;;;;;;;39.72;15.77;;;;;;;4.91;59.45;101485.03;5216572;27;20071;-87
2023/02/11 08:59:34;;;;;;;41.42;17.40;;;;;;;4.81;59.45;101486.59;5217774;27;20053;-87
2023/02/11 09:02:03;;;;;;;34.67;16.08;;;;;;;4.92;59.45;101484.19;5199061;27;20129;-86
2023/02/11 09:04:28;;;;;;;38.63;16.58;;;;;;;5.14;59.46;101475.16;5216868;27;20106;-86
2023/02/11 09:06:54;;;;;;;35.95;17.20;;;;;;;5.25;59.48;101473.63;5198886;27;20100;-86
2023/02/11 09:09:19;;;;;;;35.63;17.85;;;;;;;5.13;59.47;101466.53;5199127;27;20113;-87
2023/02/11 09:11:45;;;;;;;39.40;17.55;;;;;;;5.22;59.47;101471.88;5198976;27;20149;-87
2023/02/11 09:14:20;;;;;;;44.05;17.23;;;;;;;5.57;59.49;101466.41;5197624;27;20070;-87
2023/02/11 09:16:45;;;;;;;40.78;16.35;;;;;;;5.53;59.49;101467.22;5197691;27;20066;-86
2023/02/11 09:19:13;;;;;;;38.25;17.40;;;;;;;5.46;59.48;101462.81;5198013;27;20057;-87
2023/02/11 09:21:38;;;;;;;61.85;21.95;;;;;;;5.72;59.49;101453.75;5198362;27;20077;-86
2023/02/11 09:24:05;;;;;;;46.67;19.90;;;;;;;5.72;59.49;101458.91;5198246;27;20082;-87
2023/02/11 09:26:34;;;;;;;47.92;19.55;;;;;;;6.02;59.52;101453.34;5215846;27;20074;-85
2023/02/11 09:29:00;;;;;;;41.43;18.60;;;;;;;6.31;59.53;101448.53;5198049;27;20049;-87
2023/02/11 09:31:27;;;;;;;41.17;18.98;;;;;;;6.48;59.54;101448.75;5197625;27;20146;-86
2023/02/11 09:33:54;;;;;;;39.97;16.95;;;;;;;6.71;59.55;101439.53;5197868;27;20121;-86
2023/02/11 09:36:22;;;;;;;35.53;17.15;;;;;;;7.03;59.57;101433.78;5215413;27;20066;-87
2023/02/11 09:38:48;;;;;;;41.22;17.62;;;;;;;7.13;59.57;101433.03;5198149;27;20066;-85
2023/02/11 09:41:22;;;;;;;35.13;16.05;;;;;;;7.29;59.59;101421.94;5198211;27;20088;-87
2023/02/11 09:43:57;;;;;;;42.60;19.20;;;;;;;7.48;59.60;101425.53;5233585;27;20105;-86
2023/02/11 09:46:23;;;;;;;41.22;18.15;;;;;;;7.54;59.61;101423.00;5199382;27;20122;-87
2023/02/11 09:48:50;;;;;;;41.47;17.30;;;;;;;7.70;59.61;101419.66;5198198;27;20078;-87
2023/02/11 09:51:30;;;;;;;33.55;16.12;;;;;;;7.76;59.62;101429.19;5215782;27;20049;-86
2023/02/11 09:53:58;;;;;;;38.65;17.23;;;;;;;7.97;59.62;101420.66;5217266;27;20070;-84
2023/02/11 09:56:23;;;;;;;38.65;17.60;;;;;;;7.92;59.63;101422.38;5215741;27;20456;-86
2023/02/11 09:58:49;;;;;;;38.25;17.55;;;;;;;8.09;59.63;101418.16;5215802;27;20055;-86
2023/02/11 10:01:34;;;;;;;35.00;16.37;;;;;;;8.09;59.63;101412.97;5215096;27;20113;-86
2023/02/11 10:04:05;;;;;;;35.78;17.12;;;;;;;8.26;59.64;101418.22;5231353;27;20061;-84
2023/02/11 10:06:41;;;;;;;31.67;15.85;;;;;;;8.35;59.64;101412.25;5233772;27;20062;-86
2023/02/11 10:09:43;;;;;;;32.15;14.93;;;;;;;8.41;59.65;101404.47;5234083;27;20058;-82
2023/02/11 10:12:17;;;;;;;36.20;18.10;;;;;;;8.45;59.66;101406.22;5222392;27;20062;-85
2023/02/11 10:14:59;;;;;;;37.85;17.52;;;;;;;8.67;59.67;101400.22;5214999;27;20061;-86
2023/02/11 10:17:46;;;;;;;37.55;18.35;;;;;;;8.52;59.66;101395.00;5217532;27;20076;-84
2023/02/11 10:20:17;;;;;;;37.75;16.90;;;;;;;8.57;59.66;101388.97;5234987;27;20058;-86
2023/02/11 10:22:48;;;;;;;38.25;17.58;;;;;;;8.56;59.66;101389.81;5235207;27;20058;-86
2023/02/11 10:25:25;;;;;;;42.25;17.25;;;;;;;8.53;59.66;101391.53;5232753;27;20058;-86
2023/02/11 10:27:51;;;;;;;36.83;17.17;;;;;;;8.48;59.65;101380.25;5232486;27;20070;-83
2023/02/11 10:30:23;;;;;;;35.50;17.15;;;;;;;8.37;59.64;101384.56;5214923;27;20068;-86
2023/02/11 10:33:14;;;;;;;37.00;15.70;;;;;;;8.39;59.65;101391.50;5233037;27;20066;-85
2023/02/11 10:35:42;;;;;;;36.10;16.05;;;;;;;8.52;59.66;101379.44;5223971;27;20104;-87
2023/02/11 10:38:08;;;;;;;36.10;17.02;;;;;;;8.29;59.63;101372.41;5199185;27;20078;-87
2023/02/11 10:40:33;;;;;;;35.75;17.85;;;;;;;8.38;59.65;101365.53;5215936;27;20432;-86
2023/02/11 10:43:03;;;;;;;42.78;18.27;;;;;;;8.51;59.66;101364.69;5215454;27;20105;-85
2023/02/11 10:45:35;;;;;;;;;;;;;;;8.50;59.65;101362.97;5198101;27;20070;-85
2023/02/11 10:48:03;;;;;;;31.23;16.05;;;;;;;8.60;59.66;101357.81;5233099;27;19984;-86
2023/02/11 10:50:32;;;;;;;47.85;18.70;;;;;;;8.55;59.66;101354.34;5215326;27;20064;-84
2023/02/11 10:53:21;;;;;;;35.90;17.62;;;;;;;8.61;59.66;101351.75;5233915;27;20061;-85
2023/02/11 10:55:53;;;;;;;38.78;16.62;;;;;;;8.78;59.67;101349.19;5200209;27;20058;-88
2023/02/11 10:58:44;;;;;;;40.15;17.85;;;;;;;8.79;59.67;101345.72;5198296;27;20073;-86
2023/02/11 11:01:09;;;;;;;32.53;16.17;;;;;;;8.96;59.69;101345.72;5218839;27;20423;-85
2023/02/11 11:03:55;;;;;;;38.78;17.37;;;;;;;9.14;59.69;101343.13;5198405;27;20084;-86
2023/02/11 11:06:30;;;;;;;33.22;15.55;;;;;;;9.30;59.70;101336.19;5233256;27;20164;-86
2023/02/11 11:08:55;;;;;;;31.62;14.18;;;;;;;9.44;59.71;101336.13;5215750;27;20088;-84
2023/02/11 11:11:22;;;;;;;32.10;15.43;;;;;;;9.43;59.70;101324.87;5232649;27;20417;-83
2023/02/11 11:13:51;;;;;;;29.05;14.25;;;;;;;9.53;59.71;101329.19;5197606;27;20054;-83
2023/02/11 11:16:27;;;;;;;33.42;14.90;;;;;;;9.46;59.71;101317.09;5233581;27;20058;-85
2023/02/11 11:19:14;;;;;;;30.67;14.18;;;;;;;9.64;59.71;101317.91;5199696;27;20822;-86
2023/02/11 11:21:47;;;;;;;29.42;13.57;;;;;;;9.74;59.73;101309.22;5198337;27;20049;-86
2023/02/11 11:24:24;;;;;;;28.40;14.25;;;;;;;9.71;59.72;101309.22;5216191;27;20057;-85